Time;durP1;ratioP1;P1;durP2;ratioP2;P2;SDS_P1;SDS_P2;PMS_P1;PMS_P2;Temp;Humidity;BMP_temperature;BMP_pressure;BME280_temperature;BME280_humidity;BME280_pressure;Samples;Min_cycle;Max_cycle;Signal;HPM_P1;HPM_P2
2021/03/08 00:00:58;;;;;;;8.07;1.20;;;;;;;-3.00;80.54;101858.69;5039871;28;20130;-68
2021/03/08 00:03:24;;;;;;;9.13;3.13;;;;;;;-3.03;80.15;101857.91;5056060;28;20378;-68
2021/03/08 00:05:49;;;;;;;4.13;1.50;;;;;;;-3.09;80.44;101860.69;5056097;28;20071;-68
2021/03/08 00:08:14;;;;;;;1.95;0.98;;;;;;;-3.10;80.46;101852.00;5055748;28;20091;-68
2021/03/08 00:10:40;;;;;;;9.27;1.43;;;;;;;-3.13;80.12;101859.97;5056099;28;20048;-68
2021/03/08 00:13:06;;;;;;;5.18;0.90;;;;;;;-3.16;79.92;101862.69;5056065;28;20055;-68
2021/03/08 00:15:32;;;;;;;2.15;1.17;;;;;;;-3.20;79.87;101861.91;5055866;28;20032;-68
2021/03/08 00:17:58;;;;;;;7.57;1.20;;;;;;;-3.22;80.00;101860.25;5055597;28;20032;-68
2021/03/08 00:20:28;;;;;;;11.93;1.20;;;;;;;-3.23;80.21;101855.91;5073563;28;20115;-68
2021/03/08 00:22:55;;;;;;;6.70;1.83;;;;;;;-3.27;80.25;101862.13;5073427;28;20063;-68
2021/03/08 00:25:23;;;;;;;3.72;1.00;;;;;;;-3.29;80.08;101861.31;5073351;28;20758;-67
2021/03/08 00:27:49;;;;;;;8.18;1.77;;;;;;;-3.35;80.21;101861.50;5055396;28;20179;-67
2021/03/08 00:30:15;;;;;;;4.18;1.45;;;;;;;-3.37;80.35;101868.53;5073208;28;20119;-67
2021/03/08 00:32:41;;;;;;;6.72;0.88;;;;;;;-3.44;80.80;101863.50;5055568;28;20102;-68
2021/03/08 00:35:08;;;;;;;6.80;1.00;;;;;;;-3.45;80.84;101867.00;5055587;28;20131;-68
2021/03/08 00:37:34;;;;;;;6.78;1.10;;;;;;;-3.47;80.86;101876.63;5072882;28;20037;-68
2021/03/08 00:40:04;;;;;;;5.32;0.88;;;;;;;-3.49;81.02;101877.56;5055448;28;20342;-68
2021/03/08 00:42:30;;;;;;;6.63;1.42;;;;;;;-3.50;80.52;101887.16;5072913;28;20453;-68
2021/03/08 00:44:56;;;;;;;8.70;1.05;;;;;;;-3.55;81.05;101881.22;5055401;28;20032;-68
2021/03/08 00:47:22;;;;;;;2.38;1.27;;;;;;;-3.59;80.56;101883.97;5038810;28;20036;-68
2021/03/08 00:49:49;;;;;;;5.88;1.05;;;;;;;-3.67;80.89;101887.66;5065616;28;20085;-68
2021/03/08 00:52:14;;;;;;;;;;;;;;;-3.67;80.92;101890.28;5072428;28;20040;-68
2021/03/08 00:54:40;;;;;;;4.10;1.73;;;;;;;-3.71;81.09;101896.47;5072765;28;20014;-68
2021/03/08 00:57:06;;;;;;;5.78;1.25;;;;;;;-3.74;81.42;101883.50;5071667;28;20385;-68
2021/03/08 00:59:31;;;;;;;7.15;1.08;;;;;;;-3.72;81.74;101886.06;5071413;28;20082;-68
2021/03/08 01:01:56;;;;;;;4.00;1.70;;;;;;;-3.71;81.52;101890.41;5071918;28;20056;-68
2021/03/08 01:04:22;;;;;;;5.22;0.75;;;;;;;-3.74;81.51;101885.28;5071457;28;20751;-68
2021/03/08 01:06:48;;;;;;;3.50;0.80;;;;;;;-3.82;81.42;101886.34;5072525;28;20024;-68
2021/03/08 01:09:13;;;;;;;3.33;0.93;;;;;;;-3.84;81.78;101885.53;5071082;28;20037;-68
2021/03/08 01:11:39;;;;;;;6.65;1.92;;;;;;;-3.85;81.76;101882.94;5071434;28;20040;-68
2021/03/08 01:14:11;;;;;;;6.90;0.98;;;;;;;-3.90;81.62;101877.84;5071330;28;20062;-68
2021/03/08 01:16:37;;;;;;;9.80;1.02;;;;;;;-3.92;81.95;101876.19;5072387;28;20040;-68
2021/03/08 01:19:03;;;;;;;6.25;0.90;;;;;;;-3.94;82.23;101884.03;5071126;28;20438;-67
2021/03/08 01:21:28;;;;;;;;;;;;;;;-3.96;82.13;101871.94;5072711;28;20469;-67
2021/03/08 01:23:54;;;;;;;5.13;2.45;;;;;;;-4.00;81.96;101884.22;5071218;28;19912;-67
2021/03/08 01:26:19;;;;;;;8.80;1.08;;;;;;;-4.00;82.11;101873.78;5071912;28;20036;-68
2021/03/08 01:28:46;;;;;;;13.13;2.33;;;;;;;-4.00;82.52;101880.75;5070878;28;20113;-68
2021/03/08 01:31:11;;;;;;;2.95;1.15;;;;;;;-4.07;82.88;101873.09;5072042;28;20523;-68
2021/03/08 01:33:37;;;;;;;9.13;1.73;;;;;;;-4.13;82.65;101870.63;5071136;28;20044;-68
2021/03/08 01:36:02;;;;;;;3.90;1.27;;;;;;;-4.15;82.98;101879.41;5054345;28;20040;-68
2021/03/08 01:38:28;;;;;;;6.03;2.30;;;;;;;-4.19;82.64;101883.88;5071716;28;20056;-68
2021/03/08 01:40:53;;;;;;;7.68;1.35;;;;;;;-4.22;82.99;101883.91;5071743;28;20369;-68
2021/03/08 01:43:24;;;;;;;7.75;1.10;;;;;;;-4.27;82.83;101881.44;5070993;28;20048;-67
2021/03/08 01:45:49;;;;;;;7.38;1.20;;;;;;;-4.31;82.72;101877.22;5071748;28;20116;-67
2021/03/08 01:48:15;;;;;;;3.67;0.90;;;;;;;-4.34;82.59;101872.06;5070265;28;20552;-67
2021/03/08 01:50:43;;;;;;;9.23;1.13;;;;;;;-4.37;82.69;101872.16;5071645;28;20065;-67
2021/03/08 01:53:11;;;;;;;5.28;1.08;;;;;;;-4.41;82.63;101878.31;5053955;28;20036;-67
2021/03/08 01:55:37;;;;;;;4.45;1.10;;;;;;;-4.43;82.60;101881.88;5053953;28;20059;-67
2021/03/08 01:58:03;;;;;;;3.97;0.93;;;;;;;-4.47;82.76;101879.34;5071251;28;20036;-67
2021/03/08 02:00:30;;;;;;;6.18;1.67;;;;;;;-4.53;82.81;101882.09;5071690;28;20054;-67
2021/03/08 02:02:57;;;;;;;3.72;1.13;;;;;;;-4.54;83.25;101877.78;5053904;28;20108;-68
2021/03/08 02:05:36;;;;;;;6.97;1.20;;;;;;;-4.57;83.23;101884.81;5037375;28;20131;-68
2021/03/08 02:08:04;;;;;;;3.53;1.30;;;;;;;-4.60;83.30;101888.34;5053331;28;20036;-67
2021/03/08 02:10:32;;;;;;;7.53;2.15;;;;;;;-4.61;83.74;101886.66;5071523;28;20036;-67
2021/03/08 02:13:19;;;;;;;5.07;1.48;;;;;;;-4.63;83.68;101885.84;5071232;28;20090;-67
2021/03/08 02:16:06;;;;;;;2.25;1.63;;;;;;;-4.70;83.89;101890.34;5053689;28;20400;-67
2021/03/08 02:18:44;;;;;;;3.65;0.98;;;;;;;-4.72;83.93;101892.13;5053391;28;20452;-67
2021/03/08 02:21:18;;;;;;;6.07;1.30;;;;;;;-4.74;83.96;101890.44;5071393;28;20051;-67
2021/03/08 02:24:20;;;;;;;5.88;1.75;;;;;;;-4.78;83.75;101883.59;5071143;28;20123;-68
2021/03/08 02:26:52;;;;;;;5.57;1.40;;;;;;;-4.79;83.92;101887.94;5053515;28;20047;-67
2021/03/08 02:29:38;;;;;;;6.63;1.55;;;;;;;-4.82;83.91;101888.03;5053252;28;20068;-68
2021/03/08 02:32:07;;;;;;;5.72;1.52;;;;;;;-4.86;83.89;101886.38;5037015;28;20032;-68
2021/03/08 02:34:39;;;;;;;2.67;1.17;;;;;;;-4.88;83.82;101883.81;5053667;28;20028;-68
2021/03/08 02:37:18;;;;;;;3.83;1.35;;;;;;;-4.97;83.98;101889.22;5071044;28;20032;-68
2021/03/08 02:39:50;;;;;;;7.85;1.05;;;;;;;-4.98;84.12;101894.50;5053346;28;20122;-68
2021/03/08 02:42:25;;;;;;;5.80;1.10;;;;;;;-5.01;84.22;101882.41;5053471;28;20042;-68
2021/03/08 02:44:55;;;;;;;5.70;1.38;;;;;;;-4.98;84.30;101891.88;5071121;28;20109;-68
2021/03/08 02:47:24;;;;;;;7.53;1.05;;;;;;;-4.99;84.28;101895.34;5071070;28;20197;-68
2021/03/08 02:49:53;;;;;;;12.77;3.33;;;;;;;-5.00;84.29;101893.66;5070706;28;20094;-68
2021/03/08 02:52:20;;;;;;;15.43;3.63;;;;;;;-5.04;84.25;101903.28;5071056;28;20457;-68
2021/03/08 02:54:50;;;;;;;10.77;2.50;;;;;;;-5.12;84.38;101893.03;5070841;28;20048;-68
2021/03/08 02:57:19;;;;;;;3.75;1.98;;;;;;;-5.08;84.50;101904.25;5036811;28;20101;-68
2021/03/08 02:59:47;;;;;;;3.58;1.35;;;;;;;-5.10;84.64;101901.69;5070579;28;20043;-68
2021/03/08 03:02:13;;;;;;;5.75;1.45;;;;;;;-5.13;84.65;101903.47;5053174;28;20102;-68
2021/03/08 03:04:40;;;;;;;4.97;1.08;;;;;;;-5.11;84.55;101901.69;5053332;28;20050;-68
2021/03/08 03:07:06;;;;;;;9.73;1.95;;;;;;;-5.13;85.00;101906.97;5070877;28;20048;-68
2021/03/08 03:09:33;;;;;;;;;;;;;;;-5.10;85.10;101909.50;5053187;28;20037;-68
2021/03/08 03:12:00;;;;;;;3.88;1.00;;;;;;;-5.14;84.85;101907.84;5053194;28;20391;-67
2021/03/08 03:14:27;;;;;;;3.13;1.20;;;;;;;-5.17;84.65;101907.06;5053051;28;20541;-67
2021/03/08 03:16:58;;;;;;;7.47;1.15;;;;;;;-5.20;84.48;101909.72;5070769;28;20089;-68
2021/03/08 03:19:25;;;;;;;7.25;1.60;;;;;;;-5.19;84.46;101919.25;5052953;28;20068;-68
2021/03/08 03:21:53;;;;;;;3.15;1.27;;;;;;;-5.19;84.23;101907.09;5036591;28;20481;-68
2021/03/08 03:24:18;;;;;;;7.38;1.30;;;;;;;-5.20;84.59;101907.97;5070689;28;20102;-68
2021/03/08 03:26:44;;;;;;;9.95;2.40;;;;;;;-5.21;84.87;101908.88;5073481;28;20044;-68
2021/03/08 03:29:13;;;;;;;4.95;1.20;;;;;;;-5.18;85.08;101906.19;5073890;28;20036;-68
2021/03/08 03:31:40;;;;;;;6.57;1.23;;;;;;;-5.18;85.15;101905.34;5074428;28;20446;-67
2021/03/08 03:34:06;;;;;;;7.53;1.80;;;;;;;-5.20;85.17;101902.75;5074223;28;20107;-68
2021/03/08 03:36:34;;;;;;;5.85;1.30;;;;;;;-5.23;85.12;101913.25;5074293;28;20087;-67
2021/03/08 03:39:01;;;;;;;8.13;1.45;;;;;;;-5.25;84.98;101915.00;5073815;28;20047;-68
2021/03/08 03:41:27;;;;;;;9.18;1.83;;;;;;;-5.25;84.88;101914.16;5074195;28;20082;-68
2021/03/08 03:43:53;;;;;;;3.35;1.52;;;;;;;-5.23;85.10;101920.22;5056524;28;20090;-68
2021/03/08 03:46:19;;;;;;;5.57;2.00;;;;;;;-5.22;85.04;101925.38;5074046;28;20063;-68
2021/03/08 03:48:44;;;;;;;7.03;1.67;;;;;;;-5.25;84.69;101915.00;5073629;28;20072;-68
2021/03/08 03:51:09;;;;;;;4.20;1.90;;;;;;;-5.31;84.81;101925.59;5056319;28;20049;-68
2021/03/08 03:53:35;;;;;;;15.63;2.17;;;;;;;-5.37;84.74;101916.13;5074127;28;20098;-68
2021/03/08 03:56:00;;;;;;;6.13;1.98;;;;;;;-5.37;84.86;101920.50;5056222;28;20070;-68
2021/03/08 03:58:39;;;;;;;9.10;2.33;;;;;;;-5.42;84.57;101923.19;5056093;28;20048;-68
2021/03/08 04:01:11;;;;;;;5.03;2.22;;;;;;;-5.44;84.71;101930.16;5056254;28;20036;-68
2021/03/08 04:03:58;;;;;;;5.82;2.45;;;;;;;-5.43;85.02;101934.50;5073828;28;20055;-68
2021/03/08 04:06:29;;;;;;;8.85;2.70;;;;;;;-5.47;84.73;101937.19;5073737;28;20028;-68
2021/03/08 04:08:58;;;;;;;6.90;2.95;;;;;;;-5.45;85.49;101938.03;5055714;28;20032;-68
2021/03/08 04:11:26;;;;;;;7.93;1.77;;;;;;;-5.37;85.97;101936.97;5073599;28;20041;-68
2021/03/08 04:13:55;;;;;;;12.45;3.70;;;;;;;-5.46;85.24;101946.69;5055848;28;20128;-68
2021/03/08 04:16:20;;;;;;;8.57;4.10;;;;;;;-5.48;85.12;101943.28;5056002;28;20764;-68
2021/03/08 04:18:50;;;;;;;10.23;3.15;;;;;;;-5.43;85.26;101951.84;5055788;28;20119;-68
2021/03/08 04:21:16;;;;;;;7.35;2.20;;;;;;;-5.43;85.02;101952.72;5073267;28;20129;-68
2021/03/08 04:23:43;;;;;;;12.50;2.42;;;;;;;-5.44;85.15;101958.78;5073442;28;20468;-68
2021/03/08 04:26:11;;;;;;;10.10;2.00;;;;;;;-5.51;84.68;101960.66;5038910;28;20036;-68
2021/03/08 04:28:37;;;;;;;7.05;2.63;;;;;;;-5.48;85.18;101958.88;5055482;28;20031;-68
2021/03/08 04:31:04;;;;;;;9.13;2.63;;;;;;;-5.57;85.03;101955.59;5073243;28;20066;-69
2021/03/08 04:33:31;;;;;;;6.35;2.20;;;;;;;-5.57;84.93;101965.16;5073303;28;20438;-68
2021/03/08 04:35:58;;;;;;;9.45;3.17;;;;;;;-5.65;84.99;101961.81;5073012;28;20044;-68
2021/03/08 04:38:26;;;;;;;8.27;2.15;;;;;;;-5.68;84.94;101972.28;5071644;28;20036;-68
2021/03/08 04:40:53;;;;;;;3.78;1.67;;;;;;;-5.67;84.98;101969.66;5073130;28;20036;-68
2021/03/08 04:43:18;;;;;;;10.25;4.20;;;;;;;-5.73;84.73;101969.78;5038778;28;20051;-67
2021/03/08 04:45:44;;;;;;;11.00;2.38;;;;;;;-5.70;85.40;101969.72;5055705;28;20048;-67
2021/03/08 04:48:10;;;;;;;14.15;2.72;;;;;;;-5.67;86.35;101969.66;5054862;28;20036;-67
2021/03/08 04:50:36;;;;;;;12.27;2.40;;;;;;;-5.58;86.77;101969.47;5055228;28;20033;-67
2021/03/08 04:53:02;;;;;;;6.97;1.58;;;;;;;-5.65;86.70;101978.28;5055249;28;20470;-68
2021/03/08 04:55:29;;;;;;;;;;;;;;;-5.66;86.41;101979.19;5055768;28;20052;-67
2021/03/08 04:57:54;;;;;;;5.65;1.50;;;;;;;-5.69;86.39;101981.81;5072414;28;19919;-67
2021/03/08 05:00:21;;;;;;;9.70;2.35;;;;;;;-5.71;86.51;101981.03;5072801;28;20449;-67
2021/03/08 05:02:48;;;;;;;6.07;1.75;;;;;;;-5.73;86.43;101982.78;5072526;28;20036;-67
2021/03/08 05:05:16;;;;;;;9.30;1.98;;;;;;;-5.73;86.41;101985.38;5055068;28;20070;-67
2021/03/08 05:07:44;;;;;;;7.72;3.05;;;;;;;-5.82;85.80;101980.34;5072216;28;20046;-68
2021/03/08 05:10:14;;;;;;;12.95;2.35;;;;;;;-5.82;86.16;101985.56;5072434;28;20438;-67
2021/03/08 05:12:41;;;;;;;7.55;2.20;;;;;;;-5.87;85.99;101988.22;5072526;28;20044;-67
2021/03/08 05:15:08;;;;;;;4.45;1.80;;;;;;;-5.90;85.66;101990.00;5054813;28;20041;-67
2021/03/08 05:17:35;;;;;;;16.17;2.60;;;;;;;-5.89;86.16;101994.34;5054339;28;20587;-67
2021/03/08 05:20:09;;;;;;;4.97;2.15;;;;;;;-5.83;86.78;101999.44;5072261;28;20036;-67
2021/03/08 05:22:38;;;;;;;8.15;2.67;;;;;;;-5.77;87.27;101999.34;5054677;28;20044;-67
2021/03/08 05:25:05;;;;;;;15.48;2.83;;;;;;;-5.80;87.29;101999.41;5054557;28;20102;-68
2021/03/08 05:27:32;;;;;;;7.55;1.90;;;;;;;-5.93;86.76;101998.72;5054338;28;20127;-66
2021/03/08 05:29:58;;;;;;;6.32;2.08;;;;;;;-6.01;86.44;102003.25;5037679;28;20036;-67
2021/03/08 05:32:35;;;;;;;12.50;2.30;;;;;;;-6.08;86.26;102009.44;5054428;28;20051;-67
2021/03/08 05:35:01;;;;;;;3.42;1.67;;;;;;;-6.11;86.19;101999.97;5054222;28;20657;-67
2021/03/08 05:37:27;;;;;;;11.30;2.55;;;;;;;-6.10;86.18;102006.00;5021309;28;20596;-67
2021/03/08 05:39:55;;;;;;;6.05;2.20;;;;;;;-6.13;85.97;102004.31;5071853;28;20028;-68
2021/03/08 05:42:20;;;;;;;14.07;2.65;;;;;;;-6.14;86.05;102010.38;5071838;28;20071;-68
2021/03/08 05:45:09;;;;;;;9.75;4.85;;;;;;;-6.15;85.88;102016.47;5054092;28;20064;-67
2021/03/08 05:47:59;;;;;;;13.57;4.88;;;;;;;-6.15;85.68;102016.47;5071540;28;20033;-67
2021/03/08 05:50:55;;;;;;;13.13;4.47;;;;;;;-6.13;85.63;102019.03;5069676;28;20056;-67
2021/03/08 05:53:39;;;;;;;12.45;4.68;;;;;;;-6.11;85.42;102020.75;5054051;28;20120;-67
2021/03/08 05:56:30;;;;;;;9.82;2.92;;;;;;;-6.13;85.44;102016.44;5070746;28;20040;-68
2021/03/08 05:59:09;;;;;;;6.93;1.90;;;;;;;-5.99;86.12;102015.34;5071339;28;20085;-68
2021/03/08 06:01:52;;;;;;;6.80;2.60;;;;;;;-5.97;85.78;102029.19;5070787;28;20072;-68
2021/03/08 06:04:22;;;;;;;7.22;1.80;;;;;;;-5.93;85.64;102025.59;5053824;28;20350;-68
2021/03/08 06:07:25;;;;;;;9.15;1.80;;;;;;;-5.91;85.27;102035.13;5071602;28;20449;-67
2021/03/08 06:10:02;;;;;;;4.28;1.63;;;;;;;-5.87;84.84;102029.00;5070224;28;20469;-67
2021/03/08 06:12:32;;;;;;;8.60;2.17;;;;;;;-5.79;85.08;102040.13;5071485;28;20100;-67
2021/03/08 06:15:03;;;;;;;11.57;2.13;;;;;;;-5.73;84.99;102034.81;5070404;28;20033;-67
2021/03/08 06:17:30;;;;;;;11.90;2.90;;;;;;;-5.67;84.76;102037.28;5070079;28;20400;-67
2021/03/08 06:19:56;;;;;;;16.98;3.20;;;;;;;-5.56;84.67;102045.78;5071267;28;20036;-67
2021/03/08 06:22:22;;;;;;;10.77;3.83;;;;;;;-5.45;85.05;102044.75;5071224;28;20054;-68
2021/03/08 06:24:47;;;;;;;11.77;3.13;;;;;;;-5.30;85.01;102045.28;5071172;28;20372;-69
2021/03/08 06:27:14;;;;;;;13.63;4.40;;;;;;;-5.12;85.30;102051.91;5070370;28;20346;-68
2021/03/08 06:29:41;;;;;;;18.30;5.80;;;;;;;-4.94;85.39;102044.59;5070948;28;20083;-68
2021/03/08 06:32:08;;;;;;;24.88;7.30;;;;;;;-4.81;85.38;102053.88;5071116;28;20033;-68
2021/03/08 06:34:34;;;;;;;18.42;6.78;;;;;;;-4.76;85.41;102059.84;5071091;28;20028;-68
2021/03/08 06:37:08;;;;;;;18.23;8.43;;;;;;;-4.65;85.98;102062.22;5070247;28;20040;-68
2021/03/08 06:39:38;;;;;;;19.08;5.22;;;;;;;-4.56;85.65;102067.25;5069980;28;20032;-68
2021/03/08 06:42:04;;;;;;;16.10;4.30;;;;;;;-4.43;85.27;102064.38;5071096;28;20050;-68
2021/03/08 06:44:30;;;;;;;8.88;3.85;;;;;;;-4.21;85.33;102063.00;5070223;28;20493;-68
2021/03/08 06:46:56;;;;;;;18.00;4.30;;;;;;;-3.84;85.22;102072.53;5071003;28;20036;-68
2021/03/08 06:49:22;;;;;;;22.08;6.25;;;;;;;-3.40;84.77;102074.00;5069435;28;20074;-68
2021/03/08 06:52:14;;;;;;;13.20;4.45;;;;;;;-2.98;83.95;102080.72;5071093;28;20032;-68
2021/03/08 06:54:45;;;;;;;12.95;4.95;;;;;;;-2.69;81.92;102081.66;5066580;28;20048;-68
2021/03/08 06:57:24;;;;;;;12.05;4.72;;;;;;;-2.60;82.56;102087.50;5070932;28;20040;-68
2021/03/08 07:00:19;;;;;;;10.57;5.03;;;;;;;-2.41;82.70;102081.69;5070781;28;20041;-68
2021/03/08 07:02:49;;;;;;;12.25;3.63;;;;;;;-1.99;84.39;102087.38;5071059;28;20044;-68
2021/03/08 07:05:24;;;;;;;10.40;3.17;;;;;;;-1.69;84.48;102095.13;5073927;28;20058;-68
2021/03/08 07:07:51;;;;;;;12.80;4.63;;;;;;;-1.35;84.11;102094.00;5074577;28;20056;-68
2021/03/08 07:10:29;;;;;;;9.43;3.13;;;;;;;-1.10;83.82;102092.22;5074739;28;20309;-68
2021/03/08 07:12:54;;;;;;;10.00;3.65;;;;;;;-1.24;81.15;102093.59;5058821;28;20040;-68
2021/03/08 07:15:20;;;;;;;5.85;2.72;;;;;;;-1.28;80.43;102092.88;5074733;28;20467;-68
2021/03/08 07:17:45;;;;;;;6.23;2.50;;;;;;;-0.96;81.81;102097.00;5074322;28;20028;-68
2021/03/08 07:20:15;;;;;;;6.77;3.00;;;;;;;-0.48;82.27;102106.56;5074675;28;20041;-68
2021/03/08 07:22:51;;;;;;;7.40;2.78;;;;;;;-0.13;80.69;102095.63;5074467;28;20121;-68
2021/03/08 07:25:26;;;;;;;6.13;2.50;;;;;;;0.19;79.31;102100.44;5074446;28;20044;-68
2021/03/08 07:27:55;;;;;;;10.05;2.10;;;;;;;0.52;79.06;102109.63;5074228;28;20064;-68
2021/03/08 07:30:23;;;;;;;6.25;2.13;;;;;;;0.71;77.71;102102.66;5074362;28;20041;-68
2021/03/08 07:32:59;;;;;;;8.35;3.38;;;;;;;1.04;77.30;102102.13;5073382;28;20036;-68
2021/03/08 07:35:48;;;;;;;12.50;3.00;;;;;;;1.37;76.27;102112.06;5074324;28;20076;-68
2021/03/08 07:38:32;;;;;;;4.05;1.70;;;;;;;1.68;73.72;102112.34;5074015;28;20537;-69
2021/03/08 07:41:18;;;;;;;9.07;2.13;;;;;;;1.50;71.09;102107.94;5074286;28;20032;-69
2021/03/08 07:43:46;;;;;;;7.38;2.20;;;;;;;1.76;70.66;102116.41;5072656;28;20033;-69
2021/03/08 07:46:27;;;;;;;10.75;2.47;;;;;;;2.07;69.67;102100.00;5074141;28;20044;-69
2021/03/08 07:48:54;;;;;;;6.20;2.75;;;;;;;2.20;70.49;102108.13;5073651;28;20072;-69
2021/03/08 07:51:20;;;;;;;8.60;2.55;;;;;;;2.26;70.70;102106.06;5056386;28;20043;-69
2021/03/08 07:53:45;;;;;;;6.63;2.13;;;;;;;2.43;69.27;102112.28;5073642;28;20044;-69
2021/03/08 07:56:11;;;;;;;10.13;3.10;;;;;;;2.28;69.10;102106.00;5056436;28;20043;-69
2021/03/08 07:58:38;;;;;;;6.30;2.50;;;;;;;2.34;68.66;102110.94;5073529;28;20603;-68
2021/03/08 08:01:05;;;;;;;6.72;2.28;;;;;;;2.58;68.16;102108.91;5056226;28;20048;-69
2021/03/08 08:03:32;;;;;;;9.25;3.20;;;;;;;2.50;68.28;102119.81;5056178;28;20056;-69
2021/03/08 08:06:04;;;;;;;12.48;3.85;;;;;;;2.33;67.67;102112.75;5056300;28;20041;-69
2021/03/08 08:08:31;;;;;;;10.48;2.97;;;;;;;2.49;68.84;102112.84;5055529;28;20055;-69
2021/03/08 08:10:58;;;;;;;4.95;2.30;;;;;;;2.61;68.44;102119.28;5073565;28;20111;-69
2021/03/08 08:13:28;;;;;;;8.60;2.85;;;;;;;2.67;67.80;102113.69;5073545;28;20040;-69
2021/03/08 08:15:54;;;;;;;9.95;3.05;;;;;;;2.67;67.89;102115.47;5056064;28;20036;-69
2021/03/08 08:18:21;;;;;;;8.25;3.03;;;;;;;2.73;67.12;102125.72;5055643;28;20043;-69
2021/03/08 08:20:49;;;;;;;6.30;2.08;;;;;;;2.93;66.78;102122.06;5055873;28;20047;-69
2021/03/08 08:23:15;;;;;;;8.98;3.78;;;;;;;3.54;65.23;102110.88;5055728;28;20028;-69
2021/03/08 08:25:41;;;;;;;;;;;;;;;3.97;64.95;102115.56;5073786;28;20036;-69
2021/03/08 08:28:06;;;;;;;;;;;;;;;4.40;62.63;102118.41;5055971;28;20022;-69
2021/03/08 08:30:32;;;;;;;7.43;2.97;;;;;;;4.86;62.39;102121.00;5039002;28;19927;-69
2021/03/08 08:32:59;;;;;;;13.20;2.80;;;;;;;5.43;59.23;102118.41;5073172;28;20495;-69
2021/03/08 08:35:27;;;;;;;11.35;2.83;;;;;;;5.48;57.68;102121.59;5073102;28;20082;-70
2021/03/08 08:38:07;;;;;;;6.90;2.03;;;;;;;6.03;57.16;102122.56;5055230;28;20106;-69
2021/03/08 08:40:34;;;;;;;8.20;2.20;;;;;;;6.15;56.32;102118.28;5073044;28;20082;-67
2021/03/08 08:43:19;;;;;;;4.03;2.03;;;;;;;7.15;53.68;102119.53;5055538;28;20040;-67
2021/03/08 08:45:46;;;;;;;;;;;;;;;7.53;52.99;102122.13;5073437;28;20040;-63
2021/03/08 08:48:11;;;;;;;;;;;;;;;7.99;52.20;102121.47;5072891;28;19912;-66
2021/03/08 08:50:46;;;;;;;;;;;;;;;8.16;49.58;102119.41;5055555;28;19919;-63
2021/03/08 08:53:12;;;;;;;2.77;1.70;;;;;;;8.04;50.24;102123.81;5038823;28;19912;-66
2021/03/08 08:55:38;;;;;;;6.35;1.67;;;;;;;8.43;49.12;102117.38;5055194;28;20040;-63
2021/03/08 08:58:29;;;;;;;7.63;2.17;;;;;;;8.57;48.67;102120.78;5054900;28;20041;-64
2021/03/08 09:01:10;;;;;;;7.40;1.67;;;;;;;8.79;47.95;102120.03;5055238;28;20032;-64
2021/03/08 09:04:04;;;;;;;6.28;1.92;;;;;;;9.04;48.03;102111.84;5055127;28;20048;-64
2021/03/08 09:06:48;;;;;;;4.97;1.52;;;;;;;9.58;45.50;102109.44;5069653;28;20135;-64
2021/03/08 09:09:46;;;;;;;4.47;2.45;;;;;;;9.33;46.01;102118.53;5071980;28;20040;-64
2021/03/08 09:12:35;;;;;;;6.78;1.90;;;;;;;8.95;47.45;102122.38;5072442;28;20044;-64
2021/03/08 09:15:04;;;;;;;7.78;1.95;;;;;;;8.92;46.94;102125.25;5038135;28;20404;-64
2021/03/08 09:17:33;;;;;;;6.65;2.40;;;;;;;8.73;48.24;102124.00;5053669;28;20064;-64
2021/03/08 09:19:58;;;;;;;10.60;2.70;;;;;;;8.63;47.96;102137.16;5072187;28;20469;-64
2021/03/08 09:22:26;;;;;;;8.67;2.40;;;;;;;9.19;46.23;102133.78;5072292;28;20082;-64
2021/03/08 09:24:55;;;;;;;4.53;2.50;;;;;;;9.37;45.43;102130.66;5071612;28;20051;-64
2021/03/08 09:27:27;;;;;;;6.38;1.98;;;;;;;8.47;46.51;102127.78;5054570;28;20056;-63
2021/03/08 09:29:54;;;;;;;5.07;1.92;;;;;;;8.99;47.04;102127.34;5071972;28;20434;-64
2021/03/08 09:32:20;;;;;;;4.88;1.73;;;;;;;10.18;44.15;102118.75;5053696;28;20036;-64
2021/03/08 09:34:45;;;;;;;13.95;2.17;;;;;;;9.57;42.70;102127.25;5072022;28;20043;-64
2021/03/08 09:37:13;;;;;;;5.27;1.90;;;;;;;9.79;44.06;102130.88;5072087;28;20093;-64
2021/03/08 09:39:51;;;;;;;2.22;1.48;;;;;;;9.48;40.59;102127.97;5037476;28;20040;-64
2021/03/08 09:42:18;;;;;;;4.30;1.80;;;;;;;9.90;42.12;102134.38;5054159;28;20126;-64
2021/03/08 09:44:45;;;;;;;3.90;2.20;;;;;;;10.22;43.95;102130.03;5071925;28;20032;-64
2021/03/08 09:47:11;;;;;;;6.72;2.30;;;;;;;10.61;39.34;102127.75;5071811;28;20032;-64
2021/03/08 09:49:54;;;;;;;4.47;1.55;;;;;;;10.46;38.79;102125.34;5071225;28;20040;-64
2021/03/08 09:52:41;;;;;;;2.70;1.35;;;;;;;10.15;37.59;102141.19;5071810;28;20033;-64
2021/03/08 09:55:09;;;;;;;3.00;1.60;;;;;;;10.09;38.75;102139.06;5054278;28;20437;-64
2021/03/08 09:57:39;;;;;;;3.97;1.20;;;;;;;10.24;39.07;102136.09;5053676;28;20063;-64
2021/03/08 10:00:08;;;;;;;5.43;1.73;;;;;;;10.44;36.62;102131.78;5054163;28;20139;-64
2021/03/08 10:02:33;;;;;;;5.47;1.10;;;;;;;10.18;35.15;102136.59;5054082;28;20412;-64
2021/03/08 10:04:59;;;;;;;5.13;1.73;;;;;;;10.09;32.55;102131.06;5037315;28;20062;-64
2021/03/08 10:07:25;;;;;;;4.82;1.92;;;;;;;10.02;34.39;102143.19;5053756;28;20044;-64
2021/03/08 10:10:11;;;;;;;2.08;1.02;;;;;;;10.02;34.16;102137.88;5053481;28;20037;-64
2021/03/08 10:12:37;;;;;;;3.25;1.40;;;;;;;9.95;32.20;102139.34;5053830;28;20036;-64
2021/03/08 10:15:05;;;;;;;4.35;0.90;;;;;;;9.76;33.26;102139.94;5053860;28;20114;-64
2021/03/08 10:17:30;;;;;;;12.40;1.92;;;;;;;10.10;29.26;102147.91;5070750;28;20036;-65
2021/03/08 10:19:57;;;;;;;2.73;0.73;;;;;;;10.42;28.99;102131.06;5037031;28;20040;-64
2021/03/08 10:22:38;;;;;;;2.70;1.05;;;;;;;10.61;32.45;102130.41;5071276;28;20036;-64
2021/03/08 10:25:32;;;;;;;4.03;1.42;;;;;;;10.99;32.27;102137.81;5037092;28;20040;-64
2021/03/08 10:27:59;;;;;;;1.83;0.77;;;;;;;11.41;28.68;102135.94;5070898;28;20036;-64
2021/03/08 10:30:28;;;;;;;2.15;1.10;;;;;;;9.18;26.19;102132.09;5053597;28;20067;-64
2021/03/08 10:32:57;;;;;;;1.17;0.60;;;;;;;9.82;28.55;102131.47;5071206;28;20040;-64
2021/03/08 10:35:25;;;;;;;3.67;1.15;;;;;;;9.47;28.57;102147.59;5053458;28;20033;-64
2021/03/08 10:37:52;;;;;;;1.60;0.80;;;;;;;10.02;26.96;102139.66;5053350;28;20424;-64
2021/03/08 10:40:18;;;;;;;1.92;0.60;;;;;;;10.57;26.55;102144.00;5071144;28;20097;-64
2021/03/08 10:42:43;;;;;;;3.55;1.10;;;;;;;10.87;30.20;102142.41;5070998;28;20457;-64
2021/03/08 10:45:11;;;;;;;1.90;0.75;;;;;;;10.30;26.21;102133.81;5071209;28;20028;-64
2021/03/08 10:47:37;;;;;;;1.50;0.40;;;;;;;9.77;25.84;102133.66;5053103;28;20036;-64
2021/03/08 10:50:04;;;;;;;3.00;0.70;;;;;;;10.34;26.15;102137.91;5070930;28;20488;-64
2021/03/08 10:52:29;;;;;;;1.08;0.30;;;;;;;10.27;22.15;102130.50;5071034;28;20047;-64
2021/03/08 10:54:54;;;;;;;0.90;0.53;;;;;;;9.97;23.89;102140.03;5071007;28;20028;-64
2021/03/08 10:57:21;;;;;;;1.63;0.80;;;;;;;9.98;26.49;102136.41;5053266;28;20040;-64
2021/03/08 10:59:53;;;;;;;2.20;1.27;;;;;;;9.80;27.56;102137.91;5070807;28;20033;-64
2021/03/08 11:02:19;;;;;;;4.53;1.38;;;;;;;10.12;27.35;102132.63;5070965;28;20385;-64
2021/03/08 11:04:47;;;;;;;4.30;0.90;;;;;;;10.66;26.30;102138.88;5070930;28;20127;-64
2021/03/08 11:07:13;;;;;;;2.13;1.10;;;;;;;10.57;26.57;102143.16;5070893;28;20123;-64
2021/03/08 11:09:43;;;;;;;2.17;1.15;;;;;;;10.65;28.41;102140.72;5052906;28;20105;-64
2021/03/08 11:12:20;;;;;;;3.30;1.42;;;;;;;11.24;27.62;102130.34;5036723;28;20405;-64
2021/03/08 11:14:46;;;;;;;;;;;;;;;10.59;29.61;102140.38;5053626;28;20041;-64
2021/03/08 11:17:11;;;;;;;7.22;1.15;;;;;;;9.80;31.70;102135.22;5070778;28;19915;-64
2021/03/08 11:19:37;;;;;;;2.70;1.10;;;;;;;10.69;30.97;102135.94;5036367;28;20044;-64
2021/03/08 11:22:14;;;;;;;4.80;1.43;;;;;;;9.93;31.19;102134.13;5053188;28;20170;-65
2021/03/08 11:24:48;;;;;;;5.47;1.30;;;;;;;8.46;33.77;102140.25;5036475;28;20032;-64
2021/03/08 11:27:25;;;;;;;5.72;1.20;;;;;;;9.68;30.78;102145.91;5036544;28;20029;-64
2021/03/08 11:30:05;;;;;;;4.65;1.35;;;;;;;9.72;30.32;102135.84;5052922;28;20036;-65
2021/03/08 11:32:32;;;;;;;7.00;1.02;;;;;;;10.42;29.98;102145.28;5070457;28;20051;-64
2021/03/08 11:34:58;;;;;;;3.08;1.15;;;;;;;10.34;29.68;102142.41;5070679;28;20079;-64
2021/03/08 11:37:26;;;;;;;2.17;1.02;;;;;;;11.40;28.33;102130.72;5053087;28;20037;-64
2021/03/08 11:39:53;;;;;;;3.60;1.23;;;;;;;10.88;28.95;102138.72;5052766;28;20496;-65